createdAt,value
2022-10-19T00:02:57.362Z,2.00
2022-10-19T00:08:01.671Z,2.00
2022-10-19T00:13:05.677Z,1.60
2022-10-19T00:18:08.486Z,2.00
2022-10-19T00:23:11.211Z,2.00
2022-10-19T00:28:15.232Z,2.00
2022-10-19T00:33:21.252Z,1.40
2022-10-19T00:38:23.902Z,2.00
2022-10-19T00:43:28.757Z,2.00
2022-10-19T00:48:32.886Z,2.00
2022-10-19T00:53:35.513Z,2.00
2022-10-19T00:58:39.679Z,2.00
2022-10-19T01:03:42.318Z,2.00
2022-10-19T01:08:45.167Z,1.00
2022-10-19T01:13:54.402Z,2.60
2022-10-19T01:18:59.277Z,2.00
2022-10-19T01:24:27.441Z,2.00
2022-10-19T01:29:39.646Z,2.00
2022-10-19T01:34:46.039Z,2.00
2022-10-19T01:39:51.808Z,2.00
2022-10-19T01:44:55.511Z,2.00
2022-10-19T01:50:00.280Z,1.00
2022-10-19T01:55:03.155Z,2.00
2022-10-19T02:00:07.467Z,2.00
2022-10-19T02:05:22.219Z,1.80
2022-10-19T02:10:24.982Z,2.00
2022-10-19T02:15:28.017Z,1.00
2022-10-19T02:20:32.055Z,2.00
2022-10-19T02:25:34.717Z,1.80
2022-10-19T02:30:37.342Z,1.00
2022-10-19T02:35:41.347Z,1.40
2022-10-19T02:40:46.177Z,1.80
2022-10-19T02:45:52.533Z,2.00
2022-10-19T02:50:56.767Z,1.00
2022-10-19T02:55:59.410Z,1.00
2022-10-19T03:01:02.073Z,1.00
2022-10-19T03:06:06.152Z,1.00
2022-10-19T03:11:08.799Z,2.00
2022-10-19T03:16:12.488Z,1.00
2022-10-19T03:21:16.558Z,1.00
2022-10-19T03:26:19.276Z,1.60
2022-10-19T03:31:21.991Z,0.80
2022-10-19T03:36:26.939Z,1.00
2022-10-19T03:41:31.172Z,1.00
2022-10-19T03:46:33.952Z,2.00
2022-10-19T03:51:38.154Z,1.00
2022-10-19T03:56:40.801Z,2.00
2022-10-19T04:01:44.582Z,1.00
2022-10-19T04:06:49.872Z,1.80
2022-10-19T04:11:52.488Z,1.80
2022-10-19T04:16:55.117Z,1.00
2022-10-19T04:21:59.422Z,2.00
2022-10-19T04:27:02.625Z,1.00
2022-10-19T04:32:05.481Z,1.00
2022-10-19T04:37:09.450Z,1.00
2022-10-19T04:42:12.102Z,2.00
2022-10-19T04:47:14.741Z,1.00
2022-10-19T04:52:18.856Z,1.00
2022-10-19T04:57:21.520Z,1.40
2022-10-19T05:02:24.258Z,2.00
2022-10-19T05:07:28.238Z,1.60
2022-10-19T05:12:30.913Z,1.00
2022-10-19T05:17:33.882Z,2.00
2022-10-19T05:22:38.135Z,1.20
2022-10-19T05:27:40.824Z,1.00
2022-10-19T05:32:43.671Z,1.20
2022-10-19T05:37:47.711Z,1.00
2022-10-19T05:42:50.359Z,1.00
2022-10-19T05:47:53.035Z,1.20
2022-10-19T05:52:57.321Z,1.00
2022-10-19T05:57:59.949Z,2.00
2022-10-19T06:03:02.604Z,2.00
2022-10-19T06:08:06.607Z,1.00
2022-10-19T06:13:09.446Z,1.00
2022-10-19T06:18:12.552Z,1.00
2022-10-19T06:23:16.885Z,1.00
2022-10-19T06:28:19.542Z,1.00
2022-10-19T06:33:22.195Z,1.00
2022-10-19T06:38:26.247Z,1.00
2022-10-19T06:43:28.956Z,1.00
2022-10-19T06:48:31.704Z,1.00
2022-10-19T06:53:36.024Z,1.00
2022-10-19T06:58:38.903Z,1.00
2022-10-19T07:03:43.132Z,1.00
2022-10-19T07:08:47.302Z,1.60
2022-10-19T07:13:50.006Z,1.00
2022-10-19T07:18:53.574Z,1.00
2022-10-19T07:23:57.567Z,1.00
2022-10-19T07:29:00.286Z,1.00
2022-10-19T07:34:03.762Z,0.40
2022-10-19T07:39:08.393Z,1.00
2022-10-19T07:44:13.404Z,1.00
2022-10-19T07:49:19.288Z,1.00
2022-10-19T07:54:24.550Z,1.00
2022-10-19T07:59:27.210Z,1.00
2022-10-19T08:09:54.478Z,0.20
2022-10-19T08:14:57.304Z,1.40
2022-10-19T08:20:00.038Z,1.00
2022-10-19T08:25:04.350Z,0.80
2022-10-19T08:30:07.961Z,1.00
2022-10-19T08:35:11.052Z,1.20
2022-10-19T08:40:18.881Z,0.00
2022-10-19T08:45:28.538Z,0.60
2022-10-19T08:50:35.286Z,0.40
2022-10-19T08:55:45.160Z,1.40
2022-10-19T09:00:50.347Z,0.80
2022-10-19T09:05:55.070Z,0.40
2022-10-19T09:10:59.120Z,2.80
2022-10-19T09:16:01.844Z,2.60
2022-10-19T09:21:05.967Z,3.00
2022-10-19T09:26:14.199Z,2.00
2022-10-19T09:31:19.275Z,1.40
2022-10-19T09:36:23.038Z,2.00
2022-10-19T09:41:31.782Z,1.00
2022-10-19T09:46:39.049Z,0.60
2022-10-19T09:51:46.794Z,0.40
2022-10-19T09:56:55.257Z,1.00
2022-10-19T10:02:04.519Z,0.60
2022-10-19T10:07:07.169Z,1.00
2022-10-19T10:12:13.614Z,1.00
2022-10-19T10:22:38.062Z,1.00
2022-10-19T10:27:42.061Z,1.00
2022-10-19T10:32:48.104Z,1.00
2022-10-19T10:37:50.922Z,1.00
2022-10-19T10:42:55.445Z,1.00
2022-10-19T10:47:58.228Z,1.00
2022-10-19T10:53:01.682Z,0.60
2022-10-19T10:58:12.884Z,1.00
2022-10-19T11:03:17.499Z,1.00
2022-10-19T11:08:23.524Z,0.20
2022-10-19T11:13:30.000Z,1.00
2022-10-19T11:18:35.329Z,2.00
2022-10-19T11:23:46.697Z,5.80
2022-10-19T11:28:57.686Z,1.80
2022-10-19T11:34:03.312Z,1.00
2022-10-19T11:39:16.310Z,2.00
2022-10-19T11:44:27.403Z,1.40
2022-10-19T11:49:42.248Z,1.00
2022-10-19T11:54:52.255Z,1.20
2022-10-19T12:00:14.998Z,1.00
2022-10-19T12:05:26.465Z,1.00
2022-10-19T12:10:32.240Z,0.60
2022-10-19T12:15:38.878Z,1.00
2022-10-19T12:20:44.845Z,1.00
2022-10-19T12:25:47.510Z,1.00
2022-10-19T12:30:51.888Z,1.00
2022-10-19T12:36:00.027Z,1.00
2022-10-19T12:41:06.092Z,0.80
2022-10-19T12:46:15.001Z,0.00
2022-10-19T12:51:18.064Z,1.00
2022-10-19T12:56:22.055Z,0.40
2022-10-19T13:01:28.614Z,1.00
2022-10-19T13:06:32.886Z,0.20
2022-10-19T13:11:36.051Z,0.00
2022-10-19T13:17:00.170Z,0.00
2022-10-19T13:22:29.408Z,0.00
2022-10-19T13:27:41.160Z,0.00
2022-10-19T13:32:45.483Z,1.00
2022-10-19T13:37:51.258Z,1.00
2022-10-19T13:42:58.830Z,1.00
2022-10-19T13:48:04.735Z,0.00
2022-10-19T13:53:29.125Z,1.00
2022-10-19T13:58:59.660Z,1.00
2022-10-19T14:04:15.073Z,0.00
2022-10-19T14:09:35.928Z,0.00
2022-10-19T14:19:52.469Z,0.00
2022-10-19T14:25:01.322Z,0.00
2022-10-19T14:30:04.555Z,0.00
2022-10-19T14:35:20.302Z,0.00
2022-10-19T14:40:27.923Z,0.00
2022-10-19T14:45:32.197Z,0.00
2022-10-19T14:50:43.111Z,0.00
2022-10-19T14:55:45.993Z,0.20
2022-10-19T15:00:49.152Z,0.00
2022-10-19T15:05:56.465Z,1.00
2022-10-19T15:10:59.106Z,0.20
2022-10-19T15:16:01.853Z,0.00
2022-10-19T15:21:13.077Z,0.00
2022-10-19T15:26:18.115Z,0.00
2022-10-19T15:31:21.924Z,0.00
2022-10-19T15:36:26.595Z,0.00
2022-10-19T15:41:30.360Z,0.00
2022-10-19T15:46:33.805Z,0.00
2022-10-19T15:51:45.622Z,0.00
2022-10-19T15:56:51.410Z,0.00
2022-10-19T16:01:56.204Z,0.60
2022-10-19T16:07:00.504Z,0.00
2022-10-19T16:12:03.179Z,0.00
2022-10-19T16:17:05.879Z,0.00
2022-10-19T16:22:10.179Z,0.00
2022-10-19T16:27:15.105Z,0.00
2022-10-19T16:32:17.866Z,0.00
2022-10-19T16:37:21.952Z,0.00
2022-10-19T16:42:29.631Z,0.00
2022-10-19T16:47:33.526Z,0.00
2022-10-19T16:52:37.967Z,0.00
2022-10-19T16:57:40.818Z,0.00
2022-10-19T17:02:45.835Z,0.00
2022-10-19T17:07:50.741Z,1.00
2022-10-19T17:12:53.448Z,0.00
2022-10-19T17:17:58.014Z,0.00
2022-10-19T17:23:02.071Z,0.20
2022-10-19T17:28:04.931Z,1.00
2022-10-19T17:33:07.618Z,0.00
2022-10-19T17:38:13.163Z,1.00
2022-10-19T17:43:17.091Z,0.60
2022-10-19T17:48:19.773Z,1.00
2022-10-19T17:53:23.916Z,0.80
2022-10-19T17:58:26.686Z,1.00
2022-10-19T18:03:30.249Z,1.00
2022-10-19T18:08:35.177Z,1.40
2022-10-19T18:18:48.510Z,2.00
2022-10-19T18:23:53.348Z,2.00
2022-10-19T18:28:56.393Z,1.60
2022-10-19T18:34:00.229Z,2.20
2022-10-19T18:39:05.335Z,2.00
2022-10-19T18:44:08.439Z,2.40
2022-10-19T18:49:12.439Z,3.00
2022-10-19T18:54:16.502Z,4.20
2022-10-19T18:59:19.340Z,4.40
2022-10-19T19:04:22.013Z,4.60
2022-10-19T19:09:26.018Z,3.00
2022-10-19T19:14:28.879Z,4.80
2022-10-19T19:19:31.888Z,6.00
2022-10-19T19:24:36.102Z,5.80
2022-10-19T19:29:38.760Z,5.40
2022-10-19T19:34:41.464Z,6.00
2022-10-19T19:39:45.765Z,6.00
2022-10-19T19:44:48.509Z,6.20
2022-10-19T19:49:51.284Z,6.00
2022-10-19T19:54:55.436Z,6.40
2022-10-19T19:59:58.118Z,6.00
2022-10-19T20:05:00.822Z,6.00
2022-10-19T20:10:05.229Z,7.00
2022-10-19T20:15:08.687Z,6.00
2022-10-19T20:20:12.358Z,6.80
2022-10-19T20:25:16.443Z,7.00
2022-10-19T20:30:19.341Z,6.80
2022-10-19T20:35:22.024Z,6.60
2022-10-19T20:40:26.098Z,5.60
2022-10-19T20:45:28.869Z,7.00
2022-10-19T20:50:31.557Z,7.00
2022-10-19T20:55:35.676Z,7.00
2022-10-19T21:00:38.570Z,6.00
2022-10-19T21:05:41.535Z,6.20
2022-10-19T21:10:45.598Z,6.00
2022-10-19T21:15:48.441Z,6.40
2022-10-19T21:20:51.217Z,6.20
2022-10-19T21:25:55.589Z,6.00
2022-10-19T21:31:00.474Z,6.00
2022-10-19T21:36:03.692Z,7.00
2022-10-19T21:41:08.772Z,7.00
2022-10-19T21:46:12.576Z,6.00
2022-10-19T21:51:22.138Z,6.00
2022-10-19T21:56:26.150Z,6.40
2022-10-19T22:01:29.501Z,6.00
2022-10-19T22:06:33.414Z,4.00
2022-10-19T22:11:37.452Z,4.00
2022-10-19T22:16:40.741Z,5.80
2022-10-19T22:21:43.537Z,6.00
2022-10-19T22:26:50.582Z,4.80
2022-10-19T22:31:53.350Z,4.00
2022-10-19T22:36:55.993Z,5.20
2022-10-19T22:42:00.185Z,5.00
2022-10-19T22:47:02.929Z,5.60
2022-10-19T22:52:06.091Z,6.00
2022-10-19T22:57:10.139Z,3.80
2022-10-19T23:02:12.936Z,4.60
2022-10-19T23:07:15.609Z,4.60
2022-10-19T23:12:19.676Z,4.00
2022-10-19T23:17:22.292Z,3.80
2022-10-19T23:22:25.212Z,4.00
2022-10-19T23:27:29.217Z,4.20
2022-10-19T23:32:31.911Z,5.00
2022-10-19T23:37:34.964Z,4.80
2022-10-19T23:42:39.118Z,3.80
2022-10-19T23:47:41.852Z,6.00
2022-10-19T23:52:44.599Z,5.20
2022-10-19T23:57:48.756Z,3.00
